createdAt,value
2018-03-14T00:00:10.806Z,98744.16
2018-03-14T00:02:38.291Z,98754.30
2018-03-14T00:05:05.751Z,98745.69
2018-03-14T00:07:33.249Z,98739.41
2018-03-14T00:10:00.735Z,98750.97
2018-03-14T00:12:28.326Z,98748.48
2018-03-14T00:14:55.891Z,98747.38
2018-03-14T00:17:23.379Z,98748.08
2018-03-14T00:19:50.876Z,98757.11
2018-03-14T00:22:30.342Z,98755.12
2018-03-14T00:27:31.608Z,98755.86
2018-03-14T00:29:59.065Z,98755.65
2018-03-14T00:32:26.543Z,98754.38
2018-03-14T00:34:54.043Z,98752.73
2018-03-14T00:37:21.504Z,98748.34
2018-03-14T00:39:48.979Z,98767.66
2018-03-14T00:42:16.470Z,98751.20
2018-03-14T00:44:44.060Z,98751.98
2018-03-14T00:47:11.527Z,98747.38
2018-03-14T00:49:39.043Z,98740.95
2018-03-14T00:52:06.542Z,98741.56
2018-03-14T00:54:34.078Z,98740.20
2018-03-14T00:57:01.569Z,98732.02
2018-03-14T00:59:29.071Z,98739.38
2018-03-14T01:01:56.590Z,98751.39
2018-03-14T01:04:24.059Z,98733.97
2018-03-14T01:06:51.527Z,98734.13
2018-03-14T01:09:18.999Z,98736.70
2018-03-14T01:11:46.464Z,98736.22
2018-03-14T01:14:13.949Z,98732.61
2018-03-14T01:16:41.524Z,98733.59
2018-03-14T01:19:08.980Z,98735.83
2018-03-14T01:21:36.438Z,98725.45
2018-03-14T01:24:03.922Z,98729.29
2018-03-14T01:26:32.940Z,98723.90
2018-03-14T01:29:00.404Z,98720.27
2018-03-14T01:31:27.878Z,98717.94
2018-03-14T01:33:55.334Z,98721.77
2018-03-14T01:36:22.795Z,98717.09
2018-03-14T01:38:50.313Z,98716.95
2018-03-14T01:41:17.766Z,98727.80
2018-03-14T01:43:46.120Z,98725.69
2018-03-14T01:46:13.640Z,98718.29
2018-03-14T01:48:41.348Z,98716.64
2018-03-14T01:51:08.816Z,98726.47
2018-03-14T01:53:36.279Z,98722.28
2018-03-14T01:56:03.767Z,98725.88
2018-03-14T01:58:31.231Z,98724.54
2018-03-14T02:00:58.676Z,98730.72
2018-03-14T02:03:26.155Z,98724.23
2018-03-14T02:05:53.619Z,98724.62
2018-03-14T02:08:21.112Z,98729.30
2018-03-14T02:10:48.594Z,98740.87
2018-03-14T02:13:16.074Z,98722.13
2018-03-14T02:15:43.534Z,98725.61
2018-03-14T02:18:11.014Z,98720.56
2018-03-14T02:20:38.508Z,98730.02
2018-03-14T02:23:06.008Z,98726.44
2018-03-14T02:25:33.499Z,98723.91
2018-03-14T02:28:00.998Z,98719.63
2018-03-14T02:30:28.559Z,98718.92
2018-03-14T02:32:56.019Z,98729.93
2018-03-14T02:35:23.493Z,98712.20
2018-03-14T02:37:50.955Z,98718.45
2018-03-14T02:40:18.440Z,98723.90
2018-03-14T02:42:46.075Z,98728.50
2018-03-14T02:45:13.939Z,98731.70
2018-03-14T02:47:41.394Z,98743.78
2018-03-14T02:50:08.872Z,98748.68
2018-03-14T02:52:36.312Z,98732.41
2018-03-14T02:55:03.792Z,98742.02
2018-03-14T02:57:31.292Z,98763.24
2018-03-14T02:59:58.748Z,98742.09
2018-03-14T03:02:26.226Z,98749.88
2018-03-14T03:04:53.706Z,98754.86
2018-03-14T03:07:21.151Z,98752.23
2018-03-14T03:09:48.627Z,98760.11
2018-03-14T03:12:16.082Z,98752.03
2018-03-14T03:14:43.544Z,98753.65
2018-03-14T03:17:11.020Z,98765.28
2018-03-14T03:19:38.470Z,98754.16
2018-03-14T03:22:05.915Z,98758.39
2018-03-14T03:24:33.388Z,98759.89
2018-03-14T03:27:00.876Z,98760.55
2018-03-14T03:29:28.321Z,98769.98
2018-03-14T03:31:55.785Z,98771.30
2018-03-14T03:34:23.244Z,98771.11
2018-03-14T03:36:50.769Z,98766.14
2018-03-14T03:39:18.359Z,98767.78
2018-03-14T03:41:45.816Z,98776.69
2018-03-14T03:44:13.337Z,98774.72
2018-03-14T03:46:40.834Z,98777.61
2018-03-14T03:49:08.289Z,98774.99
2018-03-14T03:51:35.740Z,98788.13
2018-03-14T03:54:04.043Z,98789.34
2018-03-14T03:56:31.893Z,98780.45
2018-03-14T03:58:59.329Z,98775.84
2018-03-14T04:01:26.767Z,98784.36
2018-03-14T04:03:54.221Z,98786.19
2018-03-14T04:06:21.677Z,98786.14
2018-03-14T04:08:49.154Z,98789.23
2018-03-14T04:11:16.603Z,98797.30
2018-03-14T04:13:44.062Z,98815.53
2018-03-14T04:16:11.529Z,98800.20
2018-03-14T04:18:39.019Z,98805.09
2018-03-14T04:21:07.783Z,98803.02
2018-03-14T04:23:35.240Z,98803.98
2018-03-14T04:26:02.743Z,98806.55
2018-03-14T04:28:30.938Z,98804.95
2018-03-14T04:30:58.410Z,98800.03
2018-03-14T04:33:25.867Z,98804.03
2018-03-14T04:35:53.347Z,98809.10
2018-03-14T04:38:20.815Z,98804.84
2018-03-14T04:40:48.316Z,98798.39
2018-03-14T04:43:15.835Z,98803.03
2018-03-14T04:45:43.287Z,98808.61
2018-03-14T04:48:10.747Z,98804.47
2018-03-14T04:50:38.220Z,98820.68
2018-03-14T04:53:05.676Z,98814.61
2018-03-14T04:55:33.123Z,98802.34
2018-03-14T04:58:00.587Z,98803.07
2018-03-14T05:00:28.079Z,98805.33
2018-03-14T05:02:55.549Z,98804.46
2018-03-14T05:05:23.056Z,98814.85
2018-03-14T05:07:50.511Z,98814.78
2018-03-14T05:10:17.995Z,98824.69
2018-03-14T05:12:46.465Z,98822.94
2018-03-14T05:15:13.965Z,98818.30
2018-03-14T05:17:41.454Z,98829.84
2018-03-14T05:20:08.956Z,98826.45
2018-03-14T05:22:37.396Z,98828.52
2018-03-14T05:25:04.857Z,98829.05
2018-03-14T05:27:32.340Z,98835.86
2018-03-14T05:29:59.833Z,98842.70
2018-03-14T05:32:27.505Z,98838.61
2018-03-14T05:34:55.040Z,98845.43
2018-03-14T05:37:22.537Z,98856.00
2018-03-14T05:39:50.009Z,98852.12
2018-03-14T05:42:17.490Z,98846.23
2018-03-14T05:44:44.919Z,98855.89
2018-03-14T05:47:12.875Z,98854.18
2018-03-14T05:49:40.348Z,98854.55
2018-03-14T05:52:07.810Z,98856.95
2018-03-14T05:54:35.281Z,98847.53
2018-03-14T05:57:02.767Z,98855.23
2018-03-14T05:59:30.216Z,98867.45
2018-03-14T06:01:57.674Z,98875.17
2018-03-14T06:04:25.132Z,98877.41
2018-03-14T06:06:52.774Z,98881.97
2018-03-14T06:09:20.363Z,98894.78
2018-03-14T06:11:47.811Z,98888.83
2018-03-14T06:14:15.345Z,98910.55
2018-03-14T06:16:42.819Z,98905.45
2018-03-14T06:19:10.294Z,98914.33
2018-03-14T06:21:37.747Z,98918.01
2018-03-14T06:24:05.199Z,98919.59
2018-03-14T06:26:32.750Z,98922.04
2018-03-14T06:29:00.291Z,98929.27
2018-03-14T06:31:27.738Z,98922.50
2018-03-14T06:33:55.244Z,98939.38
2018-03-14T06:36:22.770Z,98934.36
2018-03-14T06:38:51.009Z,98953.55
2018-03-14T06:41:18.669Z,98931.02
2018-03-14T06:43:46.145Z,98930.79
2018-03-14T06:46:13.695Z,98946.11
2018-03-14T06:48:41.202Z,98941.05
2018-03-14T06:51:08.843Z,98947.08
2018-03-14T06:53:36.320Z,98954.67
2018-03-14T06:56:03.834Z,98958.33
2018-03-14T06:58:43.032Z,98960.57
2018-03-14T07:04:29.062Z,98967.81
2018-03-14T07:06:56.541Z,98963.33
2018-03-14T07:09:24.250Z,98970.16
2018-03-14T07:11:52.527Z,98972.05
2018-03-14T07:14:21.701Z,98971.87
2018-03-14T07:16:49.282Z,98976.06
2018-03-14T07:19:16.769Z,98967.32
2018-03-14T07:21:44.223Z,98980.89
2018-03-14T07:24:11.681Z,98977.59
2018-03-14T07:26:39.139Z,98983.02
2018-03-14T07:29:06.574Z,98984.90
2018-03-14T07:31:34.053Z,98979.29
2018-03-14T07:34:01.526Z,98998.83
2018-03-14T07:36:29.121Z,99001.81
2018-03-14T07:38:56.604Z,99002.58
2018-03-14T07:41:24.051Z,98991.11
2018-03-14T07:43:51.519Z,99000.54
2018-03-14T07:46:19.104Z,99011.17
2018-03-14T07:48:46.669Z,99001.55
2018-03-14T07:51:14.146Z,99010.26
2018-03-14T07:53:41.634Z,99013.90
2018-03-14T07:56:09.098Z,99013.66
2018-03-14T07:58:36.586Z,99024.41
2018-03-14T08:01:04.647Z,99032.93
2018-03-14T08:03:32.140Z,99013.36
2018-03-14T08:05:59.603Z,99027.36
2018-03-14T08:08:27.058Z,99026.88
2018-03-14T08:10:54.823Z,99021.91
2018-03-14T08:13:22.320Z,99027.77
2018-03-14T08:15:49.777Z,99031.56
2018-03-14T08:18:17.275Z,99031.65
2018-03-14T08:20:44.731Z,99037.55
2018-03-14T08:23:12.188Z,99033.83
2018-03-14T08:25:39.673Z,99035.90
2018-03-14T08:28:07.257Z,99033.14
2018-03-14T08:30:34.810Z,99037.84
2018-03-14T08:33:04.372Z,99042.51
2018-03-14T08:35:31.929Z,99049.85
2018-03-14T08:37:59.412Z,99055.05
2018-03-14T08:40:27.143Z,99053.48
2018-03-14T08:42:54.639Z,99056.76
2018-03-14T08:45:22.335Z,99052.19
2018-03-14T08:47:49.796Z,99055.45
2018-03-14T08:50:17.315Z,99066.92
2018-03-14T08:52:44.771Z,99064.48
2018-03-14T08:55:12.283Z,99063.02
2018-03-14T08:57:39.743Z,99064.36
2018-03-14T09:00:07.187Z,99061.38
2018-03-14T09:02:34.790Z,99061.05
2018-03-14T09:05:02.400Z,99060.53
2018-03-14T09:07:29.858Z,99060.28
2018-03-14T09:09:57.310Z,99056.86
2018-03-14T09:12:24.883Z,99068.88
2018-03-14T09:14:52.348Z,99069.88
2018-03-14T09:17:19.843Z,99074.74
2018-03-14T09:19:47.296Z,99073.52
2018-03-14T09:22:14.906Z,99089.51
2018-03-14T09:24:42.385Z,99074.00
2018-03-14T09:27:09.846Z,99103.67
2018-03-14T09:29:37.336Z,99081.56
2018-03-14T09:32:04.796Z,99091.69
2018-03-14T09:34:32.372Z,99081.32
2018-03-14T09:36:59.842Z,99081.31
2018-03-14T09:39:27.294Z,99088.84
2018-03-14T09:41:54.753Z,99092.53
2018-03-14T09:44:22.227Z,99089.79
2018-03-14T09:46:49.724Z,99079.77
2018-03-14T09:49:17.191Z,99083.73
2018-03-14T09:51:44.668Z,99087.75
2018-03-14T09:54:12.162Z,99094.50
2018-03-14T09:56:39.643Z,99098.99
2018-03-14T09:59:07.114Z,99093.66
2018-03-14T10:01:34.588Z,99102.38
2018-03-14T10:04:03.379Z,99099.66
2018-03-14T10:06:30.850Z,99112.45
2018-03-14T10:08:58.290Z,99107.95
2018-03-14T10:11:25.765Z,99108.04
2018-03-14T10:13:53.249Z,99103.06
2018-03-14T10:16:20.704Z,99110.80
2018-03-14T10:18:48.448Z,99100.59
2018-03-14T10:21:16.049Z,99108.67
2018-03-14T10:23:43.514Z,99095.84
2018-03-14T10:26:11.099Z,99102.72
2018-03-14T10:28:38.580Z,99097.24
2018-03-14T10:31:06.059Z,99092.31
2018-03-14T10:33:33.538Z,99100.30
2018-03-14T10:36:01.054Z,99101.66
2018-03-14T10:38:28.534Z,99096.19
2018-03-14T10:40:56.052Z,99095.07
2018-03-14T10:43:23.478Z,99098.05
2018-03-14T10:45:50.923Z,99099.47
2018-03-14T10:48:18.432Z,99099.61
2018-03-14T10:50:45.940Z,99095.78
2018-03-14T10:53:13.413Z,99104.06
2018-03-14T10:55:40.884Z,99097.76
2018-03-14T10:58:08.342Z,99083.67
2018-03-14T11:00:41.387Z,99080.11
2018-03-14T11:03:14.504Z,99072.33
2018-03-14T11:05:41.982Z,99082.73
2018-03-14T11:08:09.458Z,99084.54
2018-03-14T11:10:36.936Z,99074.62
2018-03-14T11:13:04.418Z,99093.56
2018-03-14T11:15:31.965Z,99074.64
2018-03-14T11:17:59.384Z,99079.77
2018-03-14T11:20:26.859Z,99073.30
2018-03-14T11:22:54.295Z,99076.84
2018-03-14T11:25:21.783Z,99080.09
2018-03-14T11:27:49.256Z,99076.70
2018-03-14T11:30:16.793Z,99079.80
2018-03-14T11:32:44.265Z,99075.55
2018-03-14T11:35:11.735Z,99079.02
2018-03-14T11:37:39.247Z,99073.04
2018-03-14T11:40:06.691Z,99072.73
2018-03-14T11:42:34.158Z,99075.70
2018-03-14T11:45:01.630Z,99060.92
2018-03-14T11:47:29.124Z,99067.47
2018-03-14T11:49:56.618Z,99068.75
2018-03-14T11:52:24.098Z,99084.16
2018-03-14T11:54:51.679Z,99059.84
2018-03-14T11:57:19.209Z,99061.93
2018-03-14T11:59:46.712Z,99059.09
2018-03-14T12:02:14.343Z,99076.55
2018-03-14T12:04:41.848Z,99068.51
2018-03-14T12:07:09.300Z,99058.78
2018-03-14T12:09:36.761Z,99061.42
2018-03-14T12:12:04.231Z,99061.28
2018-03-14T12:14:32.408Z,99054.31
2018-03-14T12:16:59.871Z,99057.84
2018-03-14T12:19:27.319Z,99049.94
2018-03-14T12:21:54.816Z,99059.91
2018-03-14T12:24:22.277Z,99055.58
2018-03-14T12:26:49.735Z,99056.63
2018-03-14T12:29:17.221Z,99047.56
2018-03-14T12:31:44.683Z,99053.88
2018-03-14T12:34:12.123Z,99050.55
2018-03-14T12:36:39.592Z,99063.73
2018-03-14T12:39:07.067Z,99035.50
2018-03-14T12:41:34.582Z,99036.53
2018-03-14T12:44:02.045Z,99039.34
2018-03-14T12:46:29.829Z,99028.36
2018-03-14T12:48:57.359Z,99038.59
2018-03-14T12:51:24.831Z,99037.03
2018-03-14T12:53:52.345Z,99031.64
2018-03-14T12:56:19.840Z,99037.87
2018-03-14T12:58:47.488Z,99034.76
2018-03-14T13:01:14.960Z,99040.73
2018-03-14T13:03:43.155Z,99027.64
2018-03-14T13:06:10.692Z,99040.92
2018-03-14T13:08:38.374Z,99034.25
2018-03-14T13:11:05.840Z,99044.14
2018-03-14T13:13:33.303Z,99043.17
2018-03-14T13:16:00.748Z,99017.94
2018-03-14T13:18:28.593Z,99023.78
2018-03-14T13:20:56.070Z,99031.03
2018-03-14T13:23:23.576Z,99025.45
2018-03-14T13:25:51.043Z,99027.61
2018-03-14T13:28:18.586Z,99032.94
2018-03-14T13:30:47.746Z,99016.52
2018-03-14T13:33:16.241Z,99028.59
2018-03-14T13:35:43.748Z,99029.73
2018-03-14T13:38:11.242Z,99020.64
2018-03-14T13:40:38.699Z,99028.45
2018-03-14T13:43:06.182Z,99043.29
2018-03-14T13:45:33.675Z,99029.09
2018-03-14T13:48:01.145Z,99020.83
2018-03-14T13:50:28.977Z,99021.93
2018-03-14T13:52:56.558Z,99029.08
2018-03-14T13:55:24.006Z,99018.70
2018-03-14T13:57:51.472Z,99017.27
2018-03-14T14:00:18.993Z,99022.48
2018-03-14T14:02:46.484Z,99021.41
2018-03-14T14:05:13.994Z,99012.17
2018-03-14T14:07:41.490Z,99023.28
2018-03-14T14:10:09.032Z,99014.33
2018-03-14T14:12:36.499Z,99017.87
2018-03-14T14:15:03.998Z,99011.11
2018-03-14T14:17:31.478Z,99013.68
2018-03-14T14:19:58.969Z,99027.17
2018-03-14T14:22:26.433Z,99006.78
2018-03-14T14:24:53.901Z,99017.57
2018-03-14T14:27:21.521Z,99007.71
2018-03-14T14:29:48.980Z,99004.91
2018-03-14T14:32:17.253Z,98998.05
2018-03-14T14:34:44.715Z,99006.69
2018-03-14T14:37:12.158Z,98996.30
2018-03-14T14:39:39.629Z,98991.19
2018-03-14T14:42:07.122Z,98989.63
2018-03-14T14:44:34.592Z,98986.95
2018-03-14T14:47:02.083Z,98979.87
2018-03-14T14:49:29.559Z,98977.55
2018-03-14T14:51:57.020Z,98981.70
2018-03-14T14:54:25.642Z,98988.52
2018-03-14T14:56:53.113Z,98984.03
2018-03-14T14:59:20.596Z,98981.70
2018-03-14T15:01:48.057Z,98978.35
2018-03-14T15:04:15.641Z,98981.47
2018-03-14T15:06:43.826Z,98986.31
2018-03-14T15:09:11.552Z,98985.23
2018-03-14T15:11:39.019Z,98978.55
2018-03-14T15:14:06.519Z,98980.98
2018-03-14T15:16:33.971Z,98985.23
2018-03-14T15:19:01.473Z,98976.58
2018-03-14T15:21:29.009Z,98970.97
2018-03-14T15:23:56.462Z,98971.34
2018-03-14T15:26:23.969Z,98974.86
2018-03-14T15:28:51.491Z,98977.33
2018-03-14T15:31:18.948Z,98984.41
2018-03-14T15:33:46.413Z,98977.73
2018-03-14T15:36:13.881Z,98983.04
2018-03-14T15:38:41.359Z,98979.11
2018-03-14T15:41:08.908Z,98974.77
2018-03-14T15:43:36.356Z,98972.73
2018-03-14T15:46:03.852Z,98973.84
2018-03-14T15:48:31.578Z,98968.62
2018-03-14T15:50:59.087Z,98966.32
2018-03-14T15:53:26.557Z,98964.98
2018-03-14T15:55:54.032Z,98962.52
2018-03-14T15:58:21.505Z,98959.88
2018-03-14T16:00:49.115Z,98968.14
2018-03-14T16:03:18.064Z,98960.59
2018-03-14T16:05:45.540Z,98962.48
2018-03-14T16:08:13.018Z,98967.73
2018-03-14T16:10:40.540Z,98962.63
2018-03-14T16:13:08.095Z,98964.10
2018-03-14T16:15:35.562Z,98961.30
2018-03-14T16:18:03.019Z,98963.56
2018-03-14T16:20:30.861Z,98961.55
2018-03-14T16:22:58.389Z,98967.13
2018-03-14T16:25:25.856Z,98962.34
2018-03-14T16:27:53.313Z,98960.39
2018-03-14T16:30:21.535Z,98963.06
2018-03-14T16:32:49.041Z,98966.52
2018-03-14T16:35:16.516Z,98976.57
2018-03-14T16:37:43.969Z,98971.89
2018-03-14T16:40:11.500Z,98980.56
2018-03-14T16:42:39.035Z,98986.46
2018-03-14T16:45:06.517Z,98989.75
2018-03-14T16:47:34.133Z,98994.13
2018-03-14T16:50:01.593Z,98998.50
2018-03-14T16:52:29.917Z,99003.05
2018-03-14T16:54:57.415Z,99000.13
2018-03-14T16:57:24.885Z,99007.61
2018-03-14T16:59:52.345Z,98999.52
2018-03-14T17:02:19.803Z,98993.17
2018-03-14T17:04:47.265Z,98997.44
2018-03-14T17:07:14.724Z,99002.91
2018-03-14T17:09:42.180Z,98998.42
2018-03-14T17:12:09.666Z,98996.48
2018-03-14T17:14:38.072Z,98992.82
2018-03-14T17:17:05.579Z,99003.94
2018-03-14T17:19:33.070Z,99000.17
2018-03-14T17:22:00.564Z,98998.90
2018-03-14T17:24:29.356Z,98998.89
2018-03-14T17:26:56.865Z,99001.09
2018-03-14T17:29:24.339Z,99005.35
2018-03-14T17:31:52.242Z,99007.85
2018-03-14T17:34:19.787Z,99013.34
2018-03-14T17:36:47.450Z,99012.53
2018-03-14T17:39:15.154Z,99012.10
2018-03-14T17:41:42.656Z,99012.88
2018-03-14T17:44:10.152Z,99017.97
2018-03-14T17:46:37.637Z,99014.57
2018-03-14T17:49:05.841Z,99013.20
2018-03-14T17:51:33.357Z,99011.69
2018-03-14T17:54:00.792Z,99015.25
2018-03-14T17:56:28.509Z,99015.48
2018-03-14T17:58:55.960Z,99009.28
2018-03-14T18:01:23.424Z,99006.80
2018-03-14T18:03:50.927Z,99012.44
2018-03-14T18:06:18.388Z,99003.52
2018-03-14T18:08:45.850Z,99002.21
2018-03-14T18:11:13.322Z,99000.55
2018-03-14T18:13:40.784Z,99006.48
2018-03-14T18:16:08.256Z,99005.56
2018-03-14T18:18:35.731Z,99014.83
2018-03-14T18:21:03.188Z,99015.64
2018-03-14T18:23:30.661Z,99010.05
2018-03-14T18:25:58.124Z,99012.20
2018-03-14T18:28:25.589Z,99017.77
2018-03-14T18:30:53.144Z,99013.17
2018-03-14T18:33:20.640Z,99017.91
2018-03-14T18:35:48.111Z,99020.45
2018-03-14T18:38:17.250Z,99013.35
2018-03-14T18:40:44.716Z,99020.88
2018-03-14T18:43:12.249Z,99015.11
2018-03-14T18:45:39.735Z,99015.64
2018-03-14T18:48:07.232Z,99022.89
2018-03-14T18:50:34.749Z,99019.77
2018-03-14T18:53:02.272Z,99018.84
2018-03-14T18:55:29.772Z,99021.94
2018-03-14T18:57:57.265Z,99023.67
2018-03-14T19:00:27.597Z,99018.19
2018-03-14T19:02:55.085Z,99014.25
2018-03-14T19:05:22.588Z,99009.97
2018-03-14T19:07:50.055Z,99007.80
2018-03-14T19:10:17.647Z,99011.93
2018-03-14T19:12:45.231Z,99014.09
2018-03-14T19:15:12.782Z,99022.94
2018-03-14T19:17:40.317Z,99025.02
2018-03-14T19:20:07.824Z,99018.50
2018-03-14T19:22:37.180Z,99020.97
2018-03-14T19:25:04.727Z,99023.09
2018-03-14T19:27:32.641Z,99021.05
2018-03-14T19:30:05.223Z,99026.76
2018-03-14T19:32:32.930Z,99024.74
2018-03-14T19:35:00.435Z,99021.55
2018-03-14T19:37:27.942Z,99021.59
2018-03-14T19:39:55.446Z,99018.20
2018-03-14T19:42:23.306Z,99008.80
2018-03-14T19:44:50.920Z,99014.31
2018-03-14T19:47:18.494Z,99010.13
2018-03-14T19:49:45.980Z,99009.71
2018-03-14T19:52:14.326Z,99005.95
2018-03-14T19:54:41.801Z,99003.41
2018-03-14T19:57:09.279Z,99004.33
2018-03-14T19:59:36.856Z,99005.96
2018-03-14T20:02:04.378Z,99007.40
2018-03-14T20:04:32.433Z,99007.00
2018-03-14T20:07:00.017Z,99013.00
2018-03-14T20:09:27.472Z,99010.09
2018-03-14T20:11:55.000Z,99011.85
2018-03-14T20:14:22.459Z,99013.16
2018-03-14T20:16:49.953Z,99009.37
2018-03-14T20:19:17.456Z,99012.76
2018-03-14T20:21:44.916Z,99013.64
2018-03-14T20:24:12.401Z,99016.61
2018-03-14T20:26:39.951Z,99008.95
2018-03-14T20:29:07.472Z,99014.03
2018-03-14T20:31:34.995Z,99008.09
2018-03-14T20:34:02.465Z,99009.28
2018-03-14T20:36:32.042Z,99011.09
2018-03-14T20:38:59.664Z,99005.27
2018-03-14T20:41:27.165Z,99004.51
2018-03-14T20:43:54.653Z,99002.02
2018-03-14T20:46:24.307Z,99001.22
2018-03-14T20:48:51.756Z,98992.38
2018-03-14T20:51:19.317Z,98998.77
2018-03-14T20:53:46.814Z,98997.58
2018-03-14T20:56:15.817Z,98995.58
2018-03-14T20:58:43.288Z,98997.78
2018-03-14T21:01:10.957Z,98997.45
2018-03-14T21:03:38.444Z,98997.91
2018-03-14T21:06:05.946Z,98994.16
2018-03-14T21:08:37.315Z,99000.95
2018-03-14T21:11:04.839Z,99006.03
2018-03-14T21:13:32.334Z,99004.73
2018-03-14T21:15:59.795Z,99010.20
2018-03-14T21:18:28.116Z,99008.49
2018-03-14T21:20:55.664Z,99005.95
2018-03-14T21:23:23.125Z,99004.28
2018-03-14T21:25:50.635Z,99000.47
2018-03-14T21:28:19.064Z,99000.05
2018-03-14T21:30:46.605Z,98997.50
2018-03-14T21:33:15.366Z,99000.89
2018-03-14T21:35:42.847Z,98999.61
2018-03-14T21:38:10.336Z,98993.25
2018-03-14T21:40:37.870Z,98991.58
2018-03-14T21:43:05.363Z,98994.13
2018-03-14T21:45:33.788Z,98992.89
2018-03-14T21:48:01.247Z,98990.39
2018-03-14T21:50:29.635Z,98983.66
2018-03-14T21:52:57.121Z,98988.80
2018-03-14T21:55:36.462Z,98992.23
2018-03-14T21:58:03.950Z,98988.92
2018-03-14T22:00:31.439Z,98989.80
2018-03-14T22:02:59.407Z,98997.45
2018-03-14T22:05:26.950Z,98993.23
2018-03-14T22:07:54.464Z,99000.88
2018-03-14T22:10:22.004Z,99003.82
2018-03-14T22:12:49.509Z,99003.82
2018-03-14T22:15:17.005Z,98997.92
2018-03-14T22:17:44.465Z,98994.97
2018-03-14T22:20:11.996Z,98995.39
2018-03-14T22:22:39.486Z,98987.80
2018-03-14T22:25:06.964Z,98986.06
2018-03-14T22:27:34.452Z,98987.36
2018-03-14T22:30:01.906Z,98986.08
2018-03-14T22:32:29.415Z,98975.52
2018-03-14T22:34:56.897Z,98972.13
2018-03-14T22:37:24.386Z,98973.41
2018-03-14T22:39:51.855Z,98982.28
2018-03-14T22:42:19.471Z,98983.15
2018-03-14T22:44:46.967Z,98981.45
2018-03-14T22:47:14.444Z,98979.36
2018-03-14T22:49:41.941Z,98975.56
2018-03-14T22:52:09.455Z,98973.03
2018-03-14T22:54:36.919Z,98967.95
2018-03-14T22:57:04.396Z,98970.09
2018-03-14T22:59:31.886Z,98970.08
2018-03-14T23:01:59.394Z,98972.64
2018-03-14T23:04:27.112Z,98968.81
2018-03-14T23:06:54.595Z,98970.10
2018-03-14T23:09:22.079Z,98963.32
2018-03-14T23:11:49.613Z,98957.01
2018-03-14T23:14:17.963Z,98964.61
2018-03-14T23:16:45.427Z,98958.69
2018-03-14T23:19:13.449Z,98961.19
2018-03-14T23:21:40.932Z,98954.84
2018-03-14T23:24:08.445Z,98957.36
2018-03-14T23:26:35.903Z,98954.41
2018-03-14T23:29:03.635Z,98950.97
2018-03-14T23:31:31.119Z,98954.77
2018-03-14T23:33:58.574Z,98953.03
2018-03-14T23:36:26.273Z,98953.85
2018-03-14T23:38:53.754Z,98947.08
2018-03-14T23:41:21.216Z,98940.28
2018-03-14T23:43:48.696Z,98952.08
2018-03-14T23:46:18.399Z,98951.19
2018-03-14T23:48:46.251Z,98949.47
2018-03-14T23:51:13.985Z,98945.63
2018-03-14T23:53:41.470Z,98944.36
2018-03-14T23:56:08.952Z,98950.24
2018-03-14T23:58:36.427Z,98944.73
